createdAt,value
2024-03-13T00:00:59.065Z,15.00
2024-03-13T00:04:23.264Z,15.20
2024-03-13T00:07:27.472Z,15.90
2024-03-13T00:10:32.113Z,15.10
2024-03-13T00:13:36.214Z,14.40
2024-03-13T00:16:40.260Z,14.60
2024-03-13T00:19:44.375Z,14.30
2024-03-13T00:22:49.503Z,15.70
2024-03-13T00:25:53.660Z,14.20
2024-03-13T00:28:57.661Z,13.30
2024-03-13T00:32:01.704Z,14.80
2024-03-13T00:35:08.473Z,14.20
2024-03-13T00:38:12.760Z,14.90
2024-03-13T00:41:16.784Z,14.10
2024-03-13T00:44:21.013Z,12.50
2024-03-13T00:47:25.574Z,12.20
2024-03-13T00:50:29.697Z,12.30
2024-03-13T00:53:33.690Z,11.20
2024-03-13T00:56:37.882Z,11.40
2024-03-13T00:59:42.012Z,11.20
2024-03-13T01:02:46.493Z,10.70
2024-03-13T01:05:51.112Z,11.40
2024-03-13T01:12:00.430Z,11.60
2024-03-13T01:15:06.132Z,11.70
2024-03-13T01:18:10.900Z,11.00
2024-03-13T01:21:15.308Z,11.50
2024-03-13T01:24:20.075Z,11.00
2024-03-13T01:27:24.485Z,10.80
2024-03-13T01:30:30.717Z,11.60
2024-03-13T01:33:35.745Z,10.40
2024-03-13T01:36:58.706Z,10.20
2024-03-13T01:40:05.782Z,11.00
2024-03-13T01:43:28.719Z,10.90
2024-03-13T01:46:51.349Z,9.70
2024-03-13T01:50:13.913Z,10.60
2024-03-13T01:53:37.425Z,11.20
2024-03-13T01:56:49.320Z,10.40
2024-03-13T02:00:12.834Z,9.80
2024-03-13T02:03:17.146Z,12.00
2024-03-13T02:06:22.261Z,9.30
2024-03-13T02:09:26.717Z,10.90
2024-03-13T02:12:31.304Z,9.70
2024-03-13T02:18:41.208Z,10.50
2024-03-13T02:21:48.736Z,9.70
2024-03-13T02:24:53.715Z,10.50
2024-03-13T02:27:57.911Z,10.20
2024-03-13T02:31:02.772Z,10.30
2024-03-13T02:34:08.406Z,9.70
2024-03-13T02:37:12.923Z,10.70
2024-03-13T02:40:18.155Z,10.40
2024-03-13T02:43:22.622Z,9.90
2024-03-13T02:46:27.826Z,9.90
2024-03-13T02:49:32.089Z,11.10
2024-03-13T02:52:36.288Z,9.80
2024-03-13T02:55:40.786Z,8.90
2024-03-13T02:58:47.797Z,10.00
2024-03-13T03:01:53.758Z,11.30
2024-03-13T03:04:58.033Z,9.50
2024-03-13T03:08:04.814Z,11.80
2024-03-13T03:11:08.918Z,10.60
2024-03-13T03:14:13.947Z,10.20
2024-03-13T03:17:18.486Z,10.70
2024-03-13T03:23:27.100Z,10.50
2024-03-13T03:26:31.625Z,11.30
2024-03-13T03:29:37.353Z,11.50
2024-03-13T03:32:41.517Z,10.70
2024-03-13T03:35:45.781Z,11.10
2024-03-13T03:38:50.065Z,11.80
2024-03-13T03:41:54.300Z,11.50
2024-03-13T03:44:58.385Z,10.30
2024-03-13T03:48:07.836Z,11.80
2024-03-13T03:51:18.378Z,11.10
2024-03-13T03:54:22.594Z,10.90
2024-03-13T03:57:26.712Z,11.30
2024-03-13T04:00:31.879Z,11.30
2024-03-13T04:03:36.407Z,12.20
2024-03-13T04:06:42.337Z,10.80
2024-03-13T04:09:46.947Z,14.20
2024-03-13T04:12:51.222Z,27.70
2024-03-13T04:15:55.451Z,20.40
2024-03-13T04:18:59.628Z,12.50
2024-03-13T04:22:03.779Z,11.00
2024-03-13T04:25:08.173Z,11.40
2024-03-13T04:28:13.094Z,11.10
2024-03-13T04:31:17.326Z,12.50
2024-03-13T04:34:21.960Z,10.80
2024-03-13T04:37:26.074Z,11.50
2024-03-13T04:40:30.176Z,12.10
2024-03-13T04:43:34.367Z,12.70
2024-03-13T04:46:39.769Z,14.10
2024-03-13T04:49:44.772Z,12.40
2024-03-13T04:52:49.280Z,12.80
2024-03-13T04:55:53.935Z,13.20
2024-03-13T04:58:58.864Z,11.60
2024-03-13T05:02:03.586Z,11.20
2024-03-13T05:05:14.046Z,11.10
2024-03-13T05:08:18.435Z,12.90
2024-03-13T05:11:22.524Z,11.80
2024-03-13T05:14:26.542Z,10.80
2024-03-13T05:17:30.665Z,12.50
2024-03-13T05:20:35.378Z,12.00
2024-03-13T05:26:44.196Z,11.70
2024-03-13T05:29:48.262Z,11.30
2024-03-13T05:32:52.460Z,12.50
2024-03-13T05:35:56.693Z,12.00
2024-03-13T05:39:01.151Z,12.00
2024-03-13T05:42:06.002Z,10.60
2024-03-13T05:45:10.746Z,11.70
2024-03-13T05:48:16.048Z,11.10
2024-03-13T05:51:20.312Z,11.50
2024-03-13T05:54:25.594Z,11.00
2024-03-13T05:57:29.595Z,10.80
2024-03-13T06:00:33.643Z,11.70
2024-03-13T06:03:37.976Z,11.20
2024-03-13T06:06:42.123Z,9.90
2024-03-13T06:09:46.207Z,11.20
2024-03-13T06:12:50.362Z,11.10
2024-03-13T06:15:54.821Z,10.00
2024-03-13T06:18:59.105Z,11.10
2024-03-13T06:22:03.515Z,9.90
2024-03-13T06:25:08.514Z,10.70
2024-03-13T06:28:31.492Z,10.70
2024-03-13T06:31:42.209Z,9.80
2024-03-13T06:34:46.293Z,9.40
2024-03-13T06:37:50.344Z,9.50
2024-03-13T06:40:54.355Z,9.30
2024-03-13T06:43:59.052Z,10.90
2024-03-13T06:47:03.333Z,11.40
2024-03-13T06:50:09.030Z,11.80
2024-03-13T06:53:13.367Z,10.90
2024-03-13T06:56:17.739Z,11.40
2024-03-13T06:59:21.763Z,12.00
2024-03-13T07:02:25.753Z,11.80
2024-03-13T07:05:30.158Z,11.30
2024-03-13T07:08:37.058Z,11.00
2024-03-13T07:11:41.744Z,11.60
2024-03-13T07:14:45.976Z,11.00
2024-03-13T07:17:50.068Z,11.50
2024-03-13T07:20:55.177Z,11.40
2024-03-13T07:23:59.295Z,10.60
2024-03-13T07:27:04.737Z,12.10
2024-03-13T07:30:09.628Z,10.40
2024-03-13T07:33:13.852Z,9.50
2024-03-13T07:36:18.125Z,9.60
2024-03-13T07:39:22.688Z,9.70
2024-03-13T07:42:27.176Z,10.20
2024-03-13T07:48:35.429Z,10.40
2024-03-13T07:51:40.058Z,11.90
2024-03-13T07:54:44.171Z,11.90
2024-03-13T07:57:48.783Z,12.90
2024-03-13T08:00:56.180Z,12.40
2024-03-13T08:04:00.422Z,11.30
2024-03-13T09:07:44.913Z,10.50
2024-03-13T09:10:49.293Z,10.20
2024-03-13T09:16:59.267Z,10.30
2024-03-13T09:23:09.462Z,10.40
2024-03-13T09:26:13.771Z,11.20
2024-03-13T09:29:19.302Z,11.60
2024-03-13T09:32:23.361Z,12.20
2024-03-13T09:35:27.446Z,11.90
2024-03-13T09:38:32.296Z,10.60
2024-03-13T09:41:37.252Z,12.40
2024-03-13T09:44:43.708Z,12.80
2024-03-13T09:47:51.273Z,13.80
2024-03-13T09:50:57.821Z,13.50
2024-03-13T09:54:04.629Z,13.30
2024-03-13T09:57:12.193Z,11.90
2024-03-13T10:00:19.969Z,13.30
2024-03-13T10:03:25.961Z,11.80
2024-03-13T10:06:33.997Z,11.90
2024-03-13T10:09:38.709Z,12.40
2024-03-13T10:15:48.636Z,11.80
2024-03-13T10:18:56.294Z,9.60
2024-03-13T10:22:02.223Z,11.00
2024-03-13T10:25:17.016Z,11.10
2024-03-13T10:28:25.042Z,11.30
2024-03-13T10:31:31.417Z,11.50
2024-03-13T10:34:36.807Z,11.00
2024-03-13T10:37:42.866Z,11.20
2024-03-13T10:40:47.461Z,9.20
2024-03-13T10:43:52.614Z,9.80
2024-03-13T10:47:00.210Z,9.30
2024-03-13T10:50:10.023Z,8.40
2024-03-13T10:53:14.106Z,9.10
2024-03-13T10:56:20.036Z,9.20
2024-03-13T10:59:24.995Z,8.60
2024-03-13T11:02:30.007Z,8.10
2024-03-13T11:05:34.418Z,8.70
2024-03-13T11:08:39.091Z,9.50
2024-03-13T11:14:52.318Z,10.50
2024-03-13T11:18:05.000Z,9.20
2024-03-13T11:21:13.771Z,9.20
2024-03-13T11:24:27.080Z,8.50
2024-03-13T11:27:31.516Z,9.90
2024-03-13T11:30:36.620Z,10.50
2024-03-13T11:33:42.460Z,9.70
2024-03-13T11:36:48.281Z,9.90
2024-03-13T11:39:56.076Z,9.10
2024-03-13T11:43:05.123Z,9.30
2024-03-13T11:46:13.223Z,8.90
2024-03-13T11:49:18.935Z,8.90
2024-03-13T11:52:24.654Z,7.90
2024-03-13T11:55:31.004Z,9.20
2024-03-13T11:58:35.424Z,9.20
2024-03-13T12:04:44.775Z,9.20
2024-03-13T12:07:53.562Z,10.10
2024-03-13T12:10:57.737Z,8.80
2024-03-13T12:14:02.000Z,9.50
2024-03-13T12:17:06.544Z,8.80
2024-03-13T12:20:19.490Z,8.70
2024-03-13T12:23:24.408Z,9.10
2024-03-13T12:26:29.702Z,8.70
2024-03-13T12:29:35.907Z,8.00
2024-03-13T12:32:40.128Z,7.90
2024-03-13T12:35:45.623Z,10.00
2024-03-13T12:38:49.843Z,10.50
2024-03-13T12:41:54.685Z,10.40
2024-03-13T12:45:00.004Z,10.70
2024-03-13T12:48:05.057Z,10.40
2024-03-13T12:51:10.217Z,9.90
2024-03-13T12:54:16.643Z,9.90
2024-03-13T12:57:20.992Z,10.10
2024-03-13T13:00:27.700Z,10.30
2024-03-13T13:03:33.465Z,10.60
2024-03-13T13:06:39.056Z,10.80
2024-03-13T13:09:43.897Z,13.30
2024-03-13T13:15:52.012Z,11.70
2024-03-13T13:18:56.187Z,10.90
2024-03-13T13:22:00.414Z,11.90
2024-03-13T13:25:05.258Z,11.40
2024-03-13T13:31:17.895Z,11.60
2024-03-13T13:34:22.132Z,12.60
2024-03-13T13:37:26.146Z,12.20
2024-03-13T13:40:30.237Z,12.70
2024-03-13T13:43:34.332Z,12.00
2024-03-13T13:46:38.633Z,12.60
2024-03-13T13:49:42.704Z,12.80
2024-03-13T13:52:47.570Z,12.70
2024-03-13T13:55:51.688Z,12.10
2024-03-13T13:58:55.960Z,11.40
2024-03-13T14:02:00.029Z,10.80
2024-03-13T14:05:07.781Z,10.60
2024-03-13T14:08:11.935Z,11.50
2024-03-13T14:11:15.971Z,11.60
2024-03-13T14:14:20.986Z,11.10
2024-03-13T14:17:28.606Z,11.30
2024-03-13T14:20:33.372Z,11.20
2024-03-13T14:23:38.438Z,12.70
2024-03-13T14:26:42.596Z,12.00
2024-03-13T14:29:46.804Z,12.90
2024-03-13T14:32:51.921Z,12.30
2024-03-13T14:35:56.335Z,12.80
2024-03-13T14:39:00.456Z,13.40
2024-03-13T14:42:06.928Z,14.10
2024-03-13T14:45:12.453Z,14.10
2024-03-13T14:48:16.688Z,12.50
2024-03-13T14:51:21.028Z,14.20
2024-03-13T14:54:25.362Z,14.60
2024-03-13T14:57:29.565Z,15.10
2024-03-13T15:00:34.339Z,14.70
2024-03-13T15:03:45.176Z,14.40
2024-03-13T15:06:49.369Z,15.10
2024-03-13T15:09:53.584Z,14.00
2024-03-13T15:12:59.197Z,16.80
2024-03-13T15:16:07.313Z,19.10
2024-03-13T15:19:11.514Z,17.80
2024-03-13T15:22:15.877Z,16.70
2024-03-13T15:25:21.245Z,16.60
2024-03-13T15:28:25.414Z,17.40
2024-03-13T15:31:29.652Z,16.20
2024-03-13T15:34:33.645Z,15.50
2024-03-13T15:37:37.638Z,16.70
2024-03-13T15:40:42.208Z,16.60
2024-03-13T15:43:46.976Z,16.00
2024-03-13T15:46:51.873Z,15.10
2024-03-13T15:49:55.995Z,16.20
2024-03-13T15:53:02.210Z,15.90
2024-03-13T15:56:07.101Z,17.30
2024-03-13T15:59:15.580Z,16.80
2024-03-13T16:02:19.961Z,17.20
2024-03-13T16:05:25.013Z,17.90
2024-03-13T16:08:54.699Z,19.60
2024-03-13T16:12:04.437Z,17.50
2024-03-13T16:15:12.372Z,16.90
2024-03-13T16:18:16.669Z,16.30
2024-03-13T16:21:21.370Z,15.30
2024-03-13T16:24:25.839Z,17.40
2024-03-13T16:30:34.724Z,17.90
2024-03-13T16:33:39.025Z,18.80
2024-03-13T16:36:43.224Z,18.60
2024-03-13T16:39:47.344Z,16.70
2024-03-13T16:42:51.411Z,17.70
2024-03-13T16:45:55.397Z,18.90
2024-03-13T16:49:00.420Z,18.50
2024-03-13T16:52:04.808Z,18.90
2024-03-13T16:55:09.038Z,19.00
2024-03-13T16:58:13.288Z,20.50
2024-03-13T17:01:17.820Z,20.80
2024-03-13T17:04:22.065Z,20.40
2024-03-13T17:07:27.227Z,19.50
2024-03-13T17:10:31.394Z,21.50
2024-03-13T17:13:35.550Z,20.80
2024-03-13T17:16:42.506Z,21.40
2024-03-13T17:19:46.617Z,21.30
2024-03-13T17:22:51.069Z,18.30
2024-03-13T17:25:55.483Z,19.40
2024-03-13T17:28:59.525Z,18.60
2024-03-13T17:32:04.272Z,17.20
2024-03-13T17:35:10.646Z,18.20
2024-03-13T17:38:14.925Z,15.00
2024-03-13T17:41:18.949Z,15.70
2024-03-13T17:44:23.902Z,17.90
2024-03-13T17:47:28.170Z,17.60
2024-03-13T17:50:32.698Z,15.90
2024-03-13T17:56:40.824Z,15.50
2024-03-13T17:59:48.731Z,15.40
2024-03-13T18:02:53.046Z,15.30
2024-03-13T18:05:57.322Z,15.80
2024-03-13T18:09:01.499Z,15.10
2024-03-13T18:12:06.500Z,16.30
2024-03-13T18:15:10.649Z,17.00
2024-03-13T18:18:15.214Z,16.50
2024-03-13T18:21:19.537Z,16.50
2024-03-13T18:24:23.806Z,15.40
2024-03-13T18:27:27.913Z,16.70
2024-03-13T18:30:32.084Z,18.10
2024-03-13T18:33:37.019Z,17.60
2024-03-13T18:36:41.027Z,16.60
2024-03-13T18:39:45.298Z,16.20
2024-03-13T18:42:49.500Z,15.80
2024-03-13T18:45:53.521Z,15.70
2024-03-13T18:48:57.966Z,15.60
2024-03-13T18:52:02.264Z,17.70
2024-03-13T18:55:07.013Z,17.80
2024-03-13T19:01:16.130Z,16.70
2024-03-13T19:04:20.611Z,16.80
2024-03-13T19:07:24.785Z,16.80
2024-03-13T19:10:28.975Z,14.80
2024-03-13T19:13:33.284Z,16.50
2024-03-13T19:16:40.480Z,17.70
2024-03-13T19:19:44.764Z,16.80
2024-03-13T19:22:48.814Z,17.40
2024-03-13T19:25:52.818Z,18.00
2024-03-13T19:28:57.202Z,19.40
2024-03-13T19:32:01.182Z,18.20
2024-03-13T19:35:05.274Z,19.40
2024-03-13T19:38:10.767Z,18.70
2024-03-13T19:41:14.884Z,16.90
2024-03-13T19:44:19.751Z,17.00
2024-03-13T19:47:24.107Z,18.10
2024-03-13T19:50:30.288Z,16.70
2024-03-13T19:53:37.865Z,16.00
2024-03-13T19:56:43.164Z,15.00
2024-03-13T19:59:47.581Z,15.60
2024-03-13T20:02:51.662Z,17.80
2024-03-13T20:05:57.169Z,18.20
2024-03-13T20:09:01.348Z,19.00
2024-03-13T20:12:06.710Z,19.40
2024-03-13T20:15:11.242Z,19.40
2024-03-13T20:18:15.544Z,18.00
2024-03-13T20:21:20.616Z,17.50
2024-03-13T20:24:25.208Z,17.00
2024-03-13T20:27:29.342Z,18.40
2024-03-13T20:30:33.634Z,17.60
2024-03-13T20:33:37.824Z,17.50
2024-03-13T20:36:42.042Z,18.50
2024-03-13T20:39:46.611Z,18.50
2024-03-13T20:42:50.809Z,19.50
2024-03-13T20:45:55.133Z,19.90
2024-03-13T20:48:59.438Z,21.00
2024-03-13T20:52:04.449Z,21.60
2024-03-13T20:55:10.175Z,22.30
2024-03-13T20:58:15.810Z,20.20
2024-03-13T21:01:21.071Z,19.10
2024-03-13T21:04:25.786Z,20.30
2024-03-13T21:07:30.876Z,17.50
2024-03-13T21:10:35.684Z,18.00
2024-03-13T21:13:40.810Z,19.40
2024-03-13T21:16:45.654Z,18.60
2024-03-13T21:19:50.033Z,20.10
2024-03-13T21:22:54.165Z,21.30
2024-03-13T21:25:58.352Z,22.00
2024-03-13T21:29:03.261Z,21.50
2024-03-13T21:32:07.401Z,22.90
2024-03-13T21:35:13.157Z,22.20
2024-03-13T21:38:17.873Z,21.30
2024-03-13T21:44:25.946Z,23.20
2024-03-13T21:47:29.953Z,24.20
2024-03-13T21:50:37.567Z,26.70
2024-03-13T21:53:42.569Z,25.10
2024-03-13T21:56:46.617Z,23.70
2024-03-13T21:59:50.754Z,24.50
2024-03-13T22:02:54.808Z,23.90
2024-03-13T22:05:59.807Z,24.30
2024-03-13T22:09:04.877Z,24.70
2024-03-13T22:12:09.383Z,24.20
2024-03-13T22:15:16.160Z,23.80
2024-03-13T22:18:21.617Z,25.40
2024-03-13T22:21:25.988Z,25.40
2024-03-13T22:24:31.243Z,26.50
2024-03-13T22:27:35.348Z,24.80
2024-03-13T22:30:40.499Z,23.90
2024-03-13T22:33:44.619Z,23.10
2024-03-13T22:36:48.712Z,24.10
2024-03-13T22:39:52.893Z,24.30
2024-03-13T22:42:57.550Z,25.50
2024-03-13T22:49:09.675Z,26.70
2024-03-13T22:52:13.760Z,29.70
2024-03-13T22:55:17.825Z,28.70
2024-03-13T22:58:22.440Z,26.50
2024-03-13T23:01:26.654Z,26.90
2024-03-13T23:04:35.506Z,23.70
2024-03-13T23:07:52.191Z,23.20
2024-03-13T23:10:57.587Z,25.00
2024-03-13T23:14:01.853Z,25.80
2024-03-13T23:17:11.345Z,23.80
2024-03-13T23:20:17.796Z,23.60
2024-03-13T23:23:21.896Z,26.40
2024-03-13T23:26:25.999Z,25.40
2024-03-13T23:29:30.348Z,23.20
2024-03-13T23:32:35.021Z,26.30
2024-03-13T23:35:41.744Z,24.50
2024-03-13T23:38:45.980Z,24.50
2024-03-13T23:41:50.115Z,24.50
2024-03-13T23:44:54.370Z,24.10
2024-03-13T23:47:59.252Z,23.20
2024-03-13T23:51:04.797Z,25.00
2024-03-13T23:54:10.165Z,24.30
2024-03-13T23:57:15.004Z,25.40
